Hoegh Transporter — LAKO7 — position and weather

sailwx.info

Track history (hours):
 
Tides and Currents Weather Stations Pressure Air Temp Water Temp Dewpoint Dewpoint Depression Visibility Wind Speed Wind Dir Waves Ship Positions

Hoegh Transporter

Last reported at 2015-Apr-21 14:27 UTC. Time now 2015-Apr-21 19:05 UTC.
Position N 38°17' E 121°45'.

Length 199 m; draft 8.9 m.

Type: Cargo ship. MMSI: 257712000.

Date/timePositionNaut miles runAvg speedWind from/ knotsBaromVisibWave heightAir tempDewpointWater temp
2015-Apr-21 14:27N 38°17' E 121°45'1415.0
2015-Apr-21 13:32N 38°22' E 121°28'15814.1
2015-Apr-21 02:21N 38°53' E 118°10'810.4
2015-Apr-21 01:33N 38°56' E 118°01'1111.1
2015-Apr-21 00:33N 38°59' E 117°47'0 0.1
2015-Apr-20 23:21N 38°59' E 117°47'0 0.0
2015-Apr-20 22:32N 38°59' E 117°47'0 0.0
2015-Apr-20 21:26N 38°59' E 117°47'0 0.0
2015-Apr-20 20:32N 38°59' E 117°47'0 0.0
2015-Apr-20 19:26N 38°59' E 117°47'0 0.0
2015-Apr-20 18:26N 38°59' E 117°47'0 0.0
2015-Apr-20 17:32N 38°59' E 117°47'0 0.0
2015-Apr-20 16:32N 38°59' E 117°47'0 0.0
2015-Apr-20 15:26N 38°59' E 117°47'2 2.0
2015-Apr-20 14:33N 38°58' E 117°49'1111.3
2015-Apr-20 13:33N 38°56' E 118°03'5 4.6
2015-Apr-20 12:33N 38°55' E 118°09'4213.7
2015-Apr-20 09:30N 38°49' E 119°02'5418.1
2015-Apr-20 06:32N 38°41' E 120°10'1918.9
2015-Apr-20 05:30N 38°38' E 120°35'1313.0
2015-Apr-20 04:32N 38°36' E 120°51'1211.9
2015-Apr-20 03:29N 38°32' E 121°06'1415.4
2015-Apr-20 02:33N 38°27' E 121°23'1817.6
2015-Apr-20 01:33N 38°21' E 121°44'1818.1
2015-Apr-20 00:33N 38°14' E 122°06'1818.2
2015-Apr-19 23:33N 38°08' E 122°27'2318.5
2015-Apr-19 22:20N 38°00' E 122°54'42213.7
2015-Apr-18 15:29N 34°00' E 130°02'1716.5
2015-Apr-18 14:26N 34°03' E 130°23'2016.3
2015-Apr-18 13:12N 34°04' E 130°47'  
2015-Apr-15 15:33N 33°52' E 134°56'1515.1
2015-Apr-15 14:34N 34°07' E 134°57'1414.2
2015-Apr-15 13:33N 34°21' E 134°60'1817.5
2015-Apr-15 12:33N 34°33' E 135°14'8 7.2
2015-Apr-15 11:24N 34°41' E 135°17'0 0.1
2015-Apr-15 10:30N 34°41' E 135°17'0 0.1
2015-Apr-15 09:30N 34°41' E 135°17'0 0.0
2015-Apr-15 08:30N 34°41' E 135°17'0 0.0
2015-Apr-15 07:30N 34°41' E 135°17'0 0.0
2015-Apr-15 06:30N 34°41' E 135°17'0 0.0
2015-Apr-15 05:30N 34°41' E 135°17'0 0.0
2015-Apr-15 04:24N 34°41' E 135°17'0 0.0
2015-Apr-15 03:30N 34°41' E 135°17'0 0.0
2015-Apr-15 02:30N 34°41' E 135°17'0 0.0
2015-Apr-15 01:30N 34°41' E 135°17'0 0.1
2015-Apr-15 00:33N 34°41' E 135°17'2 2.1
2015-Apr-14 23:33N 34°40' E 135°18'1515.4
2015-Apr-14 22:33N 34°27' E 135°09'1615.9
2015-Apr-14 21:33N 34°13' E 134°59'1414.4
2015-Apr-14 20:33N 33°58' E 134°60'231 6.9
2015-Apr-13 11:13N 34°46' E 139°34'1015.9
2015-Apr-13 10:33N 34°55' E 139°39'1615.7
2015-Apr-13 09:34N 35°10' E 139°45'1211.5
2015-Apr-13 08:33N 35°22' E 139°42'9 8.8
2015-Apr-13 07:33N 35°30' E 139°46'0 0.0
2015-Apr-13 06:32N 35°30' E 139°46'0 0.0
2015-Apr-13 05:32N 35°30' E 139°46'0 0.0
2015-Apr-13 04:32N 35°30' E 139°46'0 0.0
2015-Apr-13 03:32N 35°30' E 139°46'0 0.0
2015-Apr-13 02:32N 35°30' E 139°46'0 0.0
2015-Apr-13 01:32N 35°30' E 139°46'0 0.0
2015-Apr-13 00:32N 35°30' E 139°46'0 0.0
2015-Apr-12 23:32N 35°30' E 139°46'2 1.6
2015-Apr-12 22:33N 35°29' E 139°48'9 9.2
2015-Apr-12 21:33N 35°20' E 139°44'1111.3
2015-Apr-12 20:33N 35°09' E 139°47'1010.0
2015-Apr-12 19:34N 35°00' E 139°41'1616.3
2015-Apr-12 18:34N 34°44' E 139°40'  
Track history (hours):
 
Tides and Currents Weather Stations Pressure Air Temp Water Temp Dewpoint Dewpoint Depression Visibility Wind Speed Wind Dir Waves Ship Positions

Hoegh Transporter

Last reported at 2015-Apr-21 14:27 UTC. Time now 2015-Apr-21 19:05 UTC.
Position N 38°17' E 121°45'.

Length 199 m; draft 8.9 m.

Type: Cargo ship. MMSI: 257712000.

Date/timePositionNaut miles runAvg speedWind from/ knotsBaromVisibWave heightAir tempDewpointWater temp
2015-Apr-21 14:27N 38°17' E 121°45'1415.0
2015-Apr-21 13:32N 38°22' E 121°28'15814.1
2015-Apr-21 02:21N 38°53' E 118°10'810.4
2015-Apr-21 01:33N 38°56' E 118°01'1111.1
2015-Apr-21 00:33N 38°59' E 117°47'0 0.1
2015-Apr-20 23:21N 38°59' E 117°47'0 0.0
2015-Apr-20 22:32N 38°59' E 117°47'0 0.0
2015-Apr-20 21:26N 38°59' E 117°47'0 0.0
2015-Apr-20 20:32N 38°59' E 117°47'0 0.0
2015-Apr-20 19:26N 38°59' E 117°47'0 0.0
2015-Apr-20 18:26N 38°59' E 117°47'0 0.0
2015-Apr-20 17:32N 38°59' E 117°47'0 0.0
2015-Apr-20 16:32N 38°59' E 117°47'0 0.0
2015-Apr-20 15:26N 38°59' E 117°47'2 2.0
2015-Apr-20 14:33N 38°58' E 117°49'1111.3
2015-Apr-20 13:33N 38°56' E 118°03'5 4.6
2015-Apr-20 12:33N 38°55' E 118°09'4213.7
2015-Apr-20 09:30N 38°49' E 119°02'5418.1
2015-Apr-20 06:32N 38°41' E 120°10'1918.9
2015-Apr-20 05:30N 38°38' E 120°35'1313.0
2015-Apr-20 04:32N 38°36' E 120°51'1211.9
2015-Apr-20 03:29N 38°32' E 121°06'1415.4
2015-Apr-20 02:33N 38°27' E 121°23'1817.6
2015-Apr-20 01:33N 38°21' E 121°44'1818.1
2015-Apr-20 00:33N 38°14' E 122°06'1818.2
2015-Apr-19 23:33N 38°08' E 122°27'2318.5
2015-Apr-19 22:20N 38°00' E 122°54'42213.7
2015-Apr-18 15:29N 34°00' E 130°02'1716.5
2015-Apr-18 14:26N 34°03' E 130°23'2016.3
2015-Apr-18 13:12N 34°04' E 130°47'  
2015-Apr-15 15:33N 33°52' E 134°56'1515.1
2015-Apr-15 14:34N 34°07' E 134°57'1414.2
2015-Apr-15 13:33N 34°21' E 134°60'1817.5
2015-Apr-15 12:33N 34°33' E 135°14'8 7.2
2015-Apr-15 11:24N 34°41' E 135°17'0 0.1
2015-Apr-15 10:30N 34°41' E 135°17'0 0.1
2015-Apr-15 09:30N 34°41' E 135°17'0 0.0
2015-Apr-15 08:30N 34°41' E 135°17'0 0.0
2015-Apr-15 07:30N 34°41' E 135°17'0 0.0
2015-Apr-15 06:30N 34°41' E 135°17'0 0.0
2015-Apr-15 05:30N 34°41' E 135°17'0 0.0
2015-Apr-15 04:24N 34°41' E 135°17'0 0.0
2015-Apr-15 03:30N 34°41' E 135°17'0 0.0
2015-Apr-15 02:30N 34°41' E 135°17'0 0.0
2015-Apr-15 01:30N 34°41' E 135°17'0 0.1
2015-Apr-15 00:33N 34°41' E 135°17'2 2.1
2015-Apr-14 23:33N 34°40' E 135°18'1515.4
2015-Apr-14 22:33N 34°27' E 135°09'1615.9
2015-Apr-14 21:33N 34°13' E 134°59'1414.4
2015-Apr-14 20:33N 33°58' E 134°60'231 6.9
2015-Apr-13 11:13N 34°46' E 139°34'1015.9
2015-Apr-13 10:33N 34°55' E 139°39'1615.7
2015-Apr-13 09:34N 35°10' E 139°45'1211.5
2015-Apr-13 08:33N 35°22' E 139°42'9 8.8
2015-Apr-13 07:33N 35°30' E 139°46'0 0.0
2015-Apr-13 06:32N 35°30' E 139°46'0 0.0
2015-Apr-13 05:32N 35°30' E 139°46'0 0.0
2015-Apr-13 04:32N 35°30' E 139°46'0 0.0
2015-Apr-13 03:32N 35°30' E 139°46'0 0.0
2015-Apr-13 02:32N 35°30' E 139°46'0 0.0
2015-Apr-13 01:32N 35°30' E 139°46'0 0.0
2015-Apr-13 00:32N 35°30' E 139°46'0 0.0
2015-Apr-12 23:32N 35°30' E 139°46'2 1.6
2015-Apr-12 22:33N 35°29' E 139°48'9 9.2
2015-Apr-12 21:33N 35°20' E 139°44'1111.3
2015-Apr-12 20:33N 35°09' E 139°47'1010.0
2015-Apr-12 19:34N 35°00' E 139°41'1616.3
2015-Apr-12 18:34N 34°44' E 139°40'  

Dump ship's entire track history